Terminal Aerodrome Forecast
Issued by NWS

Home | Current Version | Previous Version | Graphics & Text | Print | Product List | Glossary On
Versions: 1 2 3 4 5 6 7 8 9 10 11 12 13
000
FTUS42 KMHX 180300 AAA
TAFPGV
TAF AMD
KPGV 180330Z 1804/1824 33010KT P6SM OVC015
     FM180600 31010KT P6SM BKN060
     FM181400 33012G20KT P6SM SKC
      AMD LTD TO CLD VIS AND WIND=

USA.gov is the U.S. government's official web portal to all federal, state and local government web resources and services.